AAY960 KVPS-KDAY
Flight info
| Callsign | AAY960 |
|---|---|
| Flight time | 1h 34m |
| Altitude | 35000 |
| Route | MGM GQO DACOS J43 FLM |
| Aircraft | A321/M-VGDW/C |
Departure
| Time | 2026-04-11 04:16 |
|---|---|
| Airport | Destin-Fort Walton Beach Airport (KVPS) |
Arrival
| Time | 2026-04-11 05:50 |
|---|---|
| Airport | James M. Cox Dayton International Airport (KDAY) |
| Time | Latitude | Longitude | Altitude | Speed | Heading |
|---|---|---|---|---|---|
| 2026-04-11 04:05 | 30.47524 | -86.51408 | 50 ft | 0 kts | 165° |
| 2026-04-11 04:13 | 30.47519 | -86.51407 | 50 ft | 2 kts | 170° |
| 2026-04-11 04:13 | 30.47489 | -86.51408 | 49 ft | 6 kts | 188° |
| 2026-04-11 04:13 | 30.47428 | -86.51427 | 47 ft | 11 kts | 201° |
| 2026-04-11 04:14 | 30.47341 | -86.51470 | 44 ft | 15 kts | 214° |
| 2026-04-11 04:14 | 30.47292 | -86.51583 | 45 ft | 16 kts | 272° |
| 2026-04-11 04:14 | 30.47306 | -86.51715 | 46 ft | 16 kts | 282° |
| 2026-04-11 04:14 | 30.47319 | -86.51849 | 48 ft | 17 kts | 258° |
| 2026-04-11 04:15 | 30.47509 | -86.52450 | 63 ft | 102 kts | 300° |
| 2026-04-11 04:15 | 30.47969 | -86.53386 | 97 ft | 160 kts | 300° |
| 2026-04-11 04:15 | 30.48550 | -86.54600 | 483 ft | 178 kts | 300° |
| 2026-04-11 04:16 | 30.49150 | -86.55795 | 1271 ft | 166 kts | 303° |
| 2026-04-11 04:16 | 30.49751 | -86.56919 | 1754 ft | 166 kts | 312° |
| 2026-04-11 04:16 | 30.50731 | -86.57555 | 2026 ft | 168 kts | 3° |
| 2026-04-11 04:16 | 30.51810 | -86.57072 | 2309 ft | 173 kts | 45° |
| 2026-04-11 04:17 | 30.52593 | -86.55962 | 2616 ft | 187 kts | 51° |
| 2026-04-11 04:17 | 30.53772 | -86.55103 | 2787 ft | 217 kts | 15° |
| 2026-04-11 04:17 | 30.55344 | -86.54949 | 3203 ft | 236 kts | 4° |
| 2026-04-11 04:17 | 30.57059 | -86.54905 | 3653 ft | 254 kts | 5° |
| 2026-04-11 04:18 | 30.58852 | -86.54806 | 4278 ft | 264 kts | 6° |
| 2026-04-11 04:18 | 30.60693 | -86.54651 | 5102 ft | 266 kts | 7° |
| 2026-04-11 04:18 | 30.62553 | -86.54455 | 5916 ft | 269 kts | 8° |
| 2026-04-11 04:18 | 30.64420 | -86.54232 | 6700 ft | 273 kts | 8° |
| 2026-04-11 04:19 | 30.66313 | -86.53992 | 7484 ft | 277 kts | 8° |
| 2026-04-11 04:19 | 30.68217 | -86.53740 | 8269 ft | 279 kts | 8° |
| 2026-04-11 04:19 | 30.70164 | -86.53477 | 9063 ft | 282 kts | 8° |
| 2026-04-11 04:19 | 30.72106 | -86.53213 | 9821 ft | 285 kts | 8° |
| 2026-04-11 04:20 | 30.74110 | -86.52937 | 10572 ft | 288 kts | 7° |
| 2026-04-11 04:20 | 30.76123 | -86.52659 | 11049 ft | 301 kts | 7° |
| 2026-04-11 04:20 | 30.78256 | -86.52364 | 11438 ft | 316 kts | 7° |
| 2026-04-11 04:20 | 30.80483 | -86.52055 | 12057 ft | 322 kts | 7° |
| 2026-04-11 04:21 | 30.82712 | -86.51745 | 12757 ft | 325 kts | 7° |
| 2026-04-11 04:21 | 30.84971 | -86.51430 | 13442 ft | 327 kts | 7° |
| 2026-04-11 04:21 | 30.87233 | -86.51114 | 14102 ft | 331 kts | 7° |
| 2026-04-11 04:21 | 30.89533 | -86.50794 | 14745 ft | 334 kts | 7° |
| 2026-04-11 04:22 | 30.91840 | -86.50472 | 15365 ft | 337 kts | 7° |
| 2026-04-11 04:22 | 30.94165 | -86.50148 | 15945 ft | 341 kts | 7° |
| 2026-04-11 04:22 | 30.96559 | -86.49813 | 16550 ft | 344 kts | 7° |
| 2026-04-11 04:22 | 30.98923 | -86.49483 | 17141 ft | 347 kts | 7° |
| 2026-04-11 04:23 | 31.01333 | -86.49146 | 17733 ft | 350 kts | 7° |
| 2026-04-11 04:23 | 31.03767 | -86.48805 | 18318 ft | 352 kts | 7° |
| 2026-04-11 04:23 | 31.06196 | -86.48463 | 18854 ft | 356 kts | 7° |
| 2026-04-11 04:23 | 31.08666 | -86.48115 | 19382 ft | 359 kts | 6° |
| 2026-04-11 04:24 | 31.11151 | -86.47766 | 19910 ft | 362 kts | 6° |
| 2026-04-11 04:24 | 31.13679 | -86.47410 | 20434 ft | 365 kts | 6° |
| 2026-04-11 04:24 | 31.16225 | -86.47052 | 20944 ft | 369 kts | 6° |
| 2026-04-11 04:24 | 31.18759 | -86.46696 | 21439 ft | 372 kts | 6° |
| 2026-04-11 04:25 | 31.21354 | -86.46331 | 21928 ft | 375 kts | 6° |
| 2026-04-11 04:25 | 31.23937 | -86.45968 | 22406 ft | 378 kts | 6° |
| 2026-04-11 04:25 | 31.26581 | -86.45596 | 22893 ft | 381 kts | 5° |
| 2026-04-11 04:25 | 31.29225 | -86.45223 | 23375 ft | 384 kts | 5° |
| 2026-04-11 04:26 | 31.31878 | -86.44849 | 23852 ft | 387 kts | 5° |
| 2026-04-11 04:26 | 31.34547 | -86.44473 | 24316 ft | 389 kts | 5° |
| 2026-04-11 04:26 | 31.37249 | -86.44093 | 24780 ft | 392 kts | 5° |
| 2026-04-11 04:26 | 31.39963 | -86.43710 | 25234 ft | 394 kts | 5° |
| 2026-04-11 04:27 | 31.42697 | -86.43324 | 25685 ft | 396 kts | 5° |
| 2026-04-11 04:27 | 31.45436 | -86.42937 | 26121 ft | 399 kts | 5° |
| 2026-04-11 04:27 | 31.48236 | -86.42540 | 26551 ft | 401 kts | 5° |
| 2026-04-11 04:27 | 31.50995 | -86.42150 | 26955 ft | 404 kts | 5° |
| 2026-04-11 04:28 | 31.53807 | -86.41752 | 27365 ft | 406 kts | 5° |
| 2026-04-11 04:28 | 31.56587 | -86.41358 | 27761 ft | 408 kts | 5° |
| 2026-04-11 04:28 | 31.59420 | -86.40957 | 28143 ft | 410 kts | 5° |
| 2026-04-11 04:28 | 31.62266 | -86.40552 | 28512 ft | 413 kts | 5° |
| 2026-04-11 04:29 | 31.65153 | -86.40143 | 28888 ft | 415 kts | 5° |
| 2026-04-11 04:29 | 31.68029 | -86.39735 | 29249 ft | 417 kts | 5° |
| 2026-04-11 04:29 | 31.70886 | -86.39330 | 29585 ft | 419 kts | 5° |
| 2026-04-11 04:29 | 31.73819 | -86.38912 | 29930 ft | 421 kts | 5° |
| 2026-04-11 04:30 | 31.76707 | -86.38500 | 30259 ft | 423 kts | 5° |
| 2026-04-11 04:30 | 31.79667 | -86.38077 | 30582 ft | 426 kts | 5° |
| 2026-04-11 04:30 | 31.82621 | -86.37656 | 30909 ft | 427 kts | 5° |
| 2026-04-11 04:30 | 31.85565 | -86.37236 | 31228 ft | 429 kts | 5° |
| 2026-04-11 04:31 | 31.88511 | -86.36814 | 31628 ft | 429 kts | 5° |
| 2026-04-11 04:31 | 31.91497 | -86.36388 | 32073 ft | 427 kts | 5° |
| 2026-04-11 04:31 | 31.94414 | -86.35970 | 32480 ft | 426 kts | 5° |
| 2026-04-11 04:31 | 31.97386 | -86.35545 | 32861 ft | 426 kts | 4° |
| 2026-04-11 04:32 | 32.00316 | -86.35125 | 33224 ft | 425 kts | 4° |
| 2026-04-11 04:32 | 32.03245 | -86.34706 | 33584 ft | 425 kts | 4° |
| 2026-04-11 04:32 | 32.06162 | -86.34287 | 33916 ft | 425 kts | 5° |
| 2026-04-11 04:32 | 32.09135 | -86.33860 | 34175 ft | 426 kts | 4° |
| 2026-04-11 04:33 | 32.12098 | -86.33433 | 34396 ft | 427 kts | 4° |
| 2026-04-11 04:33 | 32.15042 | -86.33010 | 34626 ft | 428 kts | 4° |
| 2026-04-11 04:33 | 32.17990 | -86.32567 | 34854 ft | 430 kts | 5° |
| 2026-04-11 04:33 | 32.20950 | -86.31956 | 35070 ft | 432 kts | 8° |
| 2026-04-11 04:34 | 32.23894 | -86.31138 | 35254 ft | 434 kts | 12° |
| 2026-04-11 04:34 | 32.29655 | -86.28965 | 35289 ft | 437 kts | 16° |
| 2026-04-11 04:35 | 32.35393 | -86.26585 | 35287 ft | 438 kts | 16° |
| 2026-04-11 04:35 | 32.41151 | -86.24192 | 35287 ft | 438 kts | 16° |
| 2026-04-11 04:36 | 32.46886 | -86.21814 | 35287 ft | 437 kts | 16° |
| 2026-04-11 04:36 | 32.52650 | -86.19424 | 35285 ft | 437 kts | 16° |
| 2026-04-11 04:37 | 32.58374 | -86.17049 | 35279 ft | 437 kts | 16° |
| 2026-04-11 04:37 | 32.64129 | -86.14655 | 35278 ft | 437 kts | 17° |
| 2026-04-11 04:38 | 32.69847 | -86.12275 | 35280 ft | 437 kts | 16° |
| 2026-04-11 04:38 | 32.75599 | -86.09879 | 35289 ft | 437 kts | 16° |
| 2026-04-11 04:39 | 32.81326 | -86.07488 | 35291 ft | 437 kts | 17° |
| 2026-04-11 04:39 | 32.87050 | -86.05095 | 35294 ft | 437 kts | 17° |
| 2026-04-11 04:40 | 32.92776 | -86.02699 | 35298 ft | 436 kts | 17° |
| 2026-04-11 04:40 | 32.98479 | -86.00308 | 35282 ft | 436 kts | 17° |
| 2026-04-11 04:41 | 33.04234 | -85.97894 | 35278 ft | 437 kts | 17° |
| 2026-04-11 04:41 | 33.09939 | -85.95496 | 35291 ft | 437 kts | 17° |
| 2026-04-11 04:42 | 33.15694 | -85.93074 | 35291 ft | 437 kts | 17° |
| 2026-04-11 04:42 | 33.21392 | -85.90673 | 35292 ft | 436 kts | 17° |
| 2026-04-11 04:43 | 33.27127 | -85.88252 | 35296 ft | 436 kts | 17° |
| 2026-04-11 04:43 | 33.32858 | -85.85831 | 35293 ft | 436 kts | 17° |
| 2026-04-11 04:44 | 33.38571 | -85.83412 | 35292 ft | 436 kts | 16° |
| 2026-04-11 04:44 | 33.44272 | -85.80996 | 35296 ft | 436 kts | 16° |
| 2026-04-11 04:45 | 33.50000 | -85.78567 | 35297 ft | 436 kts | 16° |
| 2026-04-11 04:45 | 33.55724 | -85.76135 | 35301 ft | 436 kts | 17° |
| 2026-04-11 04:46 | 33.61460 | -85.73693 | 35302 ft | 435 kts | 17° |
| 2026-04-11 04:46 | 33.67180 | -85.71255 | 35300 ft | 435 kts | 17° |
| 2026-04-11 04:47 | 33.72866 | -85.68829 | 35299 ft | 434 kts | 16° |
| 2026-04-11 04:47 | 33.78582 | -85.66385 | 35297 ft | 435 kts | 16° |
| 2026-04-11 04:47 | 33.81439 | -85.65163 | 35513 ft | 435 kts | 16° |
| 2026-04-11 04:48 | 33.84295 | -85.63941 | 35368 ft | 434 kts | 16° |
| 2026-04-11 04:48 | 33.89988 | -85.61500 | 35305 ft | 434 kts | 16° |
| 2026-04-11 04:49 | 33.95661 | -85.59066 | 35295 ft | 434 kts | 16° |
| 2026-04-11 04:49 | 33.98496 | -85.57848 | 35100 ft | 434 kts | 16° |
| 2026-04-11 04:49 | 34.01342 | -85.56625 | 35316 ft | 434 kts | 16° |
| 2026-04-11 04:50 | 34.07058 | -85.54165 | 35297 ft | 433 kts | 16° |
| 2026-04-11 04:50 | 34.12705 | -85.51731 | 35289 ft | 433 kts | 16° |
| 2026-04-11 04:51 | 34.18398 | -85.49273 | 35291 ft | 433 kts | 16° |
| 2026-04-11 04:51 | 34.24099 | -85.46809 | 35287 ft | 433 kts | 16° |
| 2026-04-11 04:52 | 34.29750 | -85.44363 | 35286 ft | 434 kts | 16° |
| 2026-04-11 04:52 | 34.35434 | -85.41898 | 35294 ft | 433 kts | 16° |
| 2026-04-11 04:53 | 34.41120 | -85.39429 | 35299 ft | 433 kts | 16° |
| 2026-04-11 04:53 | 34.46796 | -85.36962 | 35301 ft | 432 kts | 16° |
| 2026-04-11 04:54 | 34.52479 | -85.34486 | 35304 ft | 432 kts | 17° |
| 2026-04-11 04:54 | 34.58125 | -85.32024 | 35295 ft | 433 kts | 17° |
| 2026-04-11 04:55 | 34.63793 | -85.29550 | 35301 ft | 433 kts | 17° |
| 2026-04-11 04:55 | 34.69483 | -85.27059 | 35298 ft | 433 kts | 17° |
| 2026-04-11 04:56 | 34.75145 | -85.24580 | 35296 ft | 433 kts | 17° |
| 2026-04-11 04:56 | 34.80815 | -85.22091 | 35304 ft | 433 kts | 17° |
| 2026-04-11 04:57 | 34.86490 | -85.19596 | 35298 ft | 433 kts | 17° |
| 2026-04-11 04:57 | 34.92166 | -85.17098 | 35299 ft | 433 kts | 17° |
| 2026-04-11 04:58 | 34.97889 | -85.14904 | 35304 ft | 430 kts | 11° |
| 2026-04-11 04:58 | 35.02192 | -85.13693 | 35303 ft | 430 kts | 9° |
| 2026-04-11 04:59 | 35.05597 | -85.12780 | 35300 ft | 430 kts | 9° |
| 2026-04-11 04:59 | 35.11488 | -85.11201 | 35304 ft | 431 kts | 9° |
| 2026-04-11 05:00 | 35.17343 | -85.09618 | 35305 ft | 430 kts | 9° |
| 2026-04-11 05:00 | 35.23160 | -85.08041 | 35300 ft | 429 kts | 9° |
| 2026-04-11 05:01 | 35.29003 | -85.06455 | 35298 ft | 428 kts | 8° |
| 2026-04-11 05:01 | 35.34840 | -85.04869 | 35290 ft | 429 kts | 9° |
| 2026-04-11 05:02 | 35.40641 | -85.03289 | 35291 ft | 429 kts | 9° |
| 2026-04-11 05:02 | 35.46504 | -85.01689 | 35297 ft | 429 kts | 8° |
| 2026-04-11 05:03 | 35.52321 | -85.00099 | 35285 ft | 429 kts | 8° |
| 2026-04-11 05:03 | 35.58148 | -84.98506 | 35288 ft | 428 kts | 8° |
| 2026-04-11 05:04 | 35.63951 | -84.96913 | 35292 ft | 428 kts | 8° |
| 2026-04-11 05:04 | 35.69794 | -84.95310 | 35296 ft | 427 kts | 8° |
| 2026-04-11 05:05 | 35.78484 | -84.92923 | 35305 ft | 426 kts | 8° |
| 2026-04-11 05:05 | 35.84242 | -84.91335 | 35309 ft | 425 kts | 8° |
| 2026-04-11 05:06 | 35.90033 | -84.89738 | 35315 ft | 426 kts | 8° |
| 2026-04-11 05:06 | 35.95832 | -84.88134 | 35313 ft | 425 kts | 8° |
| 2026-04-11 05:07 | 36.01592 | -84.86540 | 35316 ft | 423 kts | 8° |
| 2026-04-11 05:07 | 36.07316 | -84.84953 | 35314 ft | 423 kts | 7° |
| 2026-04-11 05:08 | 36.13105 | -84.83348 | 35310 ft | 424 kts | 8° |
| 2026-04-11 05:08 | 36.18858 | -84.81747 | 35305 ft | 424 kts | 7° |
| 2026-04-11 05:09 | 36.24613 | -84.80145 | 35300 ft | 424 kts | 7° |
| 2026-04-11 05:09 | 36.30384 | -84.78538 | 35302 ft | 424 kts | 7° |
| 2026-04-11 05:10 | 36.36163 | -84.77173 | 35306 ft | 419 kts | 2° |
| 2026-04-11 05:10 | 36.41951 | -84.76314 | 35307 ft | 419 kts | 1° |
| 2026-04-11 05:11 | 36.47754 | -84.75452 | 35304 ft | 419 kts | 1° |
| 2026-04-11 05:11 | 36.53552 | -84.74567 | 35302 ft | 419 kts | 1° |
| 2026-04-11 05:12 | 36.59347 | -84.73670 | 35304 ft | 420 kts | 1° |
| 2026-04-11 05:12 | 36.65165 | -84.72762 | 35301 ft | 419 kts | 1° |
| 2026-04-11 05:13 | 36.70945 | -84.71855 | 35307 ft | 419 kts | 1° |
| 2026-04-11 05:13 | 36.76699 | -84.70953 | 35304 ft | 418 kts | 1° |
| 2026-04-11 05:14 | 36.82489 | -84.70046 | 35303 ft | 418 kts | 1° |
| 2026-04-11 05:14 | 36.88230 | -84.69139 | 35296 ft | 417 kts | 1° |
| 2026-04-11 05:15 | 36.94016 | -84.68229 | 35292 ft | 417 kts | 1° |
| 2026-04-11 05:15 | 36.99787 | -84.67318 | 35287 ft | 418 kts | 1° |
| 2026-04-11 05:16 | 37.05517 | -84.66412 | 35287 ft | 417 kts | 0° |
| 2026-04-11 05:16 | 37.11282 | -84.65498 | 35282 ft | 416 kts | 0° |
| 2026-04-11 05:17 | 37.17039 | -84.64586 | 35281 ft | 416 kts | 0° |
| 2026-04-11 05:17 | 37.22783 | -84.63674 | 35279 ft | 415 kts | 0° |
| 2026-04-11 05:18 | 37.28507 | -84.62763 | 35279 ft | 416 kts | 0° |
| 2026-04-11 05:18 | 37.34242 | -84.61851 | 35276 ft | 415 kts | 0° |
| 2026-04-11 05:19 | 37.40000 | -84.60934 | 35272 ft | 416 kts | 0° |
| 2026-04-11 05:19 | 37.45737 | -84.60017 | 35275 ft | 416 kts | 0° |
| 2026-04-11 05:20 | 37.51492 | -84.59094 | 35284 ft | 416 kts | 0° |
| 2026-04-11 05:20 | 37.57237 | -84.58173 | 35289 ft | 415 kts | 360° |
| 2026-04-11 05:21 | 37.62980 | -84.57251 | 35290 ft | 415 kts | 360° |
| 2026-04-11 05:21 | 37.65819 | -84.56795 | 35100 ft | 417 kts | 360° |
| 2026-04-11 05:21 | 37.68713 | -84.56328 | 34744 ft | 414 kts | 360° |
| 2026-04-11 05:22 | 37.71557 | -84.55867 | 34396 ft | 410 kts | 360° |
| 2026-04-11 05:22 | 37.74372 | -84.55413 | 34071 ft | 408 kts | 359° |
| 2026-04-11 05:22 | 37.77195 | -84.54958 | 33744 ft | 407 kts | 359° |
| 2026-04-11 05:22 | 37.80005 | -84.54507 | 33416 ft | 407 kts | 360° |
| 2026-04-11 05:23 | 37.82835 | -84.54053 | 33086 ft | 408 kts | 360° |
| 2026-04-11 05:23 | 37.85641 | -84.53602 | 32763 ft | 409 kts | 360° |
| 2026-04-11 05:23 | 37.88500 | -84.53140 | 32435 ft | 411 kts | 360° |
| 2026-04-11 05:23 | 37.91344 | -84.52681 | 32114 ft | 413 kts | 360° |
| 2026-04-11 05:24 | 37.94191 | -84.52220 | 31756 ft | 415 kts | 360° |
| 2026-04-11 05:24 | 37.97072 | -84.51752 | 31348 ft | 418 kts | 360° |
| 2026-04-11 05:24 | 37.99984 | -84.51280 | 30940 ft | 419 kts | 360° |
| 2026-04-11 05:24 | 38.02844 | -84.50814 | 30540 ft | 417 kts | 360° |
| 2026-04-11 05:25 | 38.05747 | -84.50339 | 30129 ft | 415 kts | 360° |
| 2026-04-11 05:25 | 38.08581 | -84.49879 | 29724 ft | 413 kts | 360° |
| 2026-04-11 05:25 | 38.11439 | -84.49414 | 29228 ft | 411 kts | 360° |
| 2026-04-11 05:25 | 38.14272 | -84.48953 | 28700 ft | 407 kts | 0° |
| 2026-04-11 05:26 | 38.17057 | -84.48497 | 28182 ft | 402 kts | 0° |
| 2026-04-11 05:26 | 38.19819 | -84.48045 | 27661 ft | 398 kts | 0° |
| 2026-04-11 05:26 | 38.22583 | -84.47594 | 27136 ft | 394 kts | 0° |
| 2026-04-11 05:26 | 38.25276 | -84.47154 | 26619 ft | 389 kts | 0° |
| 2026-04-11 05:27 | 38.27947 | -84.46716 | 26104 ft | 386 kts | 0° |
| 2026-04-11 05:27 | 38.30587 | -84.46285 | 25585 ft | 382 kts | 1° |
| 2026-04-11 05:27 | 38.33216 | -84.45855 | 25069 ft | 378 kts | 1° |
| 2026-04-11 05:27 | 38.35789 | -84.45429 | 24544 ft | 364 kts | 1° |
| 2026-04-11 05:28 | 38.38284 | -84.45017 | 24039 ft | 359 kts | 1° |
| 2026-04-11 05:28 | 38.40745 | -84.44614 | 23533 ft | 356 kts | 1° |
| 2026-04-11 05:28 | 38.43204 | -84.44214 | 23031 ft | 354 kts | 1° |
| 2026-04-11 05:28 | 38.45641 | -84.43814 | 22536 ft | 352 kts | 1° |
| 2026-04-11 05:29 | 38.48083 | -84.43413 | 22037 ft | 351 kts | 1° |
| 2026-04-11 05:29 | 38.50500 | -84.43016 | 21589 ft | 348 kts | 1° |
| 2026-04-11 05:29 | 38.52879 | -84.42622 | 21213 ft | 343 kts | 1° |
| 2026-04-11 05:29 | 38.55254 | -84.42230 | 20835 ft | 338 kts | 1° |
| 2026-04-11 05:30 | 38.57563 | -84.41848 | 20471 ft | 333 kts | 1° |
| 2026-04-11 05:30 | 38.59852 | -84.41470 | 20111 ft | 329 kts | 1° |
| 2026-04-11 05:30 | 38.62107 | -84.41099 | 19819 ft | 329 kts | 1° |
| 2026-04-11 05:30 | 38.64433 | -84.40718 | 19527 ft | 337 kts | 1° |
| 2026-04-11 05:31 | 38.66775 | -84.40332 | 19234 ft | 337 kts | 2° |
| 2026-04-11 05:31 | 38.69094 | -84.39946 | 18938 ft | 335 kts | 2° |
| 2026-04-11 05:31 | 38.71382 | -84.39565 | 18653 ft | 334 kts | 2° |
| 2026-04-11 05:31 | 38.73703 | -84.39181 | 18360 ft | 333 kts | 2° |
| 2026-04-11 05:32 | 38.75963 | -84.38807 | 18071 ft | 331 kts | 2° |
| 2026-04-11 05:32 | 38.78256 | -84.38457 | 17764 ft | 328 kts | 359° |
| 2026-04-11 05:32 | 38.80516 | -84.38481 | 17459 ft | 322 kts | 350° |
| 2026-04-11 05:32 | 38.82713 | -84.38950 | 17170 ft | 317 kts | 341° |
| 2026-04-11 05:33 | 38.84804 | -84.39771 | 16876 ft | 313 kts | 337° |
| 2026-04-11 05:33 | 38.86855 | -84.40675 | 16579 ft | 311 kts | 336° |
| 2026-04-11 05:33 | 38.88923 | -84.41487 | 16272 ft | 313 kts | 345° |
| 2026-04-11 05:33 | 38.91111 | -84.41690 | 15983 ft | 316 kts | 354° |
| 2026-04-11 05:34 | 38.93270 | -84.41691 | 15671 ft | 312 kts | 355° |
| 2026-04-11 05:34 | 38.95432 | -84.41683 | 15323 ft | 306 kts | 354° |
| 2026-04-11 05:34 | 38.97548 | -84.41698 | 14998 ft | 301 kts | 354° |
| 2026-04-11 05:34 | 38.99636 | -84.41734 | 14674 ft | 296 kts | 354° |
| 2026-04-11 05:35 | 39.01669 | -84.41782 | 14354 ft | 292 kts | 353° |
| 2026-04-11 05:35 | 39.03702 | -84.41840 | 14029 ft | 287 kts | 353° |
| 2026-04-11 05:35 | 39.05673 | -84.41901 | 13709 ft | 283 kts | 353° |
| 2026-04-11 05:35 | 39.07624 | -84.41966 | 13394 ft | 281 kts | 353° |
| 2026-04-11 05:36 | 39.09599 | -84.42033 | 13072 ft | 280 kts | 353° |
| 2026-04-11 05:36 | 39.11548 | -84.42102 | 12755 ft | 279 kts | 353° |
| 2026-04-11 05:36 | 39.13484 | -84.42172 | 12443 ft | 278 kts | 353° |
| 2026-04-11 05:36 | 39.15393 | -84.42239 | 12139 ft | 277 kts | 353° |
| 2026-04-11 05:37 | 39.17343 | -84.42308 | 11823 ft | 276 kts | 353° |
| 2026-04-11 05:37 | 39.19249 | -84.42377 | 11509 ft | 275 kts | 353° |
| 2026-04-11 05:37 | 39.21153 | -84.42444 | 11193 ft | 274 kts | 353° |
| 2026-04-11 05:37 | 39.23057 | -84.42512 | 10875 ft | 273 kts | 353° |
| 2026-04-11 05:38 | 39.24955 | -84.42580 | 10555 ft | 271 kts | 353° |
| 2026-04-11 05:38 | 39.26840 | -84.42647 | 10234 ft | 270 kts | 352° |
| 2026-04-11 05:38 | 39.28716 | -84.42714 | 9915 ft | 269 kts | 352° |
| 2026-04-11 05:38 | 39.30582 | -84.42780 | 9608 ft | 267 kts | 352° |
| 2026-04-11 05:39 | 39.32456 | -84.42847 | 9289 ft | 266 kts | 353° |
| 2026-04-11 05:39 | 39.34302 | -84.42915 | 8973 ft | 266 kts | 353° |
| 2026-04-11 05:39 | 39.36144 | -84.42980 | 8652 ft | 265 kts | 353° |
| 2026-04-11 05:39 | 39.37988 | -84.43047 | 8331 ft | 265 kts | 353° |
| 2026-04-11 05:40 | 39.39835 | -84.43115 | 8004 ft | 264 kts | 353° |
| 2026-04-11 05:40 | 39.41675 | -84.43179 | 7677 ft | 263 kts | 353° |
| 2026-04-11 05:40 | 39.43503 | -84.43245 | 7411 ft | 262 kts | 353° |
| 2026-04-11 05:40 | 39.45324 | -84.43310 | 7159 ft | 262 kts | 353° |
| 2026-04-11 05:41 | 39.47147 | -84.43376 | 6908 ft | 261 kts | 353° |
| 2026-04-11 05:41 | 39.48956 | -84.43439 | 6656 ft | 260 kts | 353° |
| 2026-04-11 05:41 | 39.50765 | -84.43504 | 6402 ft | 259 kts | 353° |
| 2026-04-11 05:41 | 39.52557 | -84.43569 | 6150 ft | 258 kts | 353° |
| 2026-04-11 05:42 | 39.54358 | -84.43636 | 5901 ft | 256 kts | 354° |
| 2026-04-11 05:42 | 39.56120 | -84.43698 | 5717 ft | 248 kts | 354° |
| 2026-04-11 05:42 | 39.57824 | -84.43757 | 5562 ft | 238 kts | 354° |
| 2026-04-11 05:42 | 39.59439 | -84.43813 | 5426 ft | 229 kts | 354° |
| 2026-04-11 05:43 | 39.61030 | -84.43870 | 5297 ft | 226 kts | 355° |
| 2026-04-11 05:43 | 39.62602 | -84.43928 | 5172 ft | 226 kts | 355° |
| 2026-04-11 05:43 | 39.64183 | -84.43986 | 5044 ft | 225 kts | 355° |
| 2026-04-11 05:43 | 39.65756 | -84.44044 | 4921 ft | 224 kts | 355° |
| 2026-04-11 05:44 | 39.67306 | -84.44102 | 4796 ft | 224 kts | 355° |
| 2026-04-11 05:44 | 39.68863 | -84.44158 | 4667 ft | 223 kts | 356° |
| 2026-04-11 05:44 | 39.70422 | -84.44214 | 4543 ft | 222 kts | 356° |
| 2026-04-11 05:44 | 39.71970 | -84.44271 | 4422 ft | 221 kts | 356° |
| 2026-04-11 05:45 | 39.73513 | -84.44327 | 4311 ft | 220 kts | 357° |
| 2026-04-11 05:45 | 39.75042 | -84.44380 | 4184 ft | 219 kts | 357° |
| 2026-04-11 05:45 | 39.76568 | -84.44434 | 4059 ft | 217 kts | 357° |
| 2026-04-11 05:45 | 39.78041 | -84.44368 | 3913 ft | 207 kts | 12° |
| 2026-04-11 05:46 | 39.79262 | -84.43454 | 3737 ft | 202 kts | 38° |
| 2026-04-11 05:46 | 39.80180 | -84.42106 | 3472 ft | 195 kts | 49° |
| 2026-04-11 05:46 | 39.80964 | -84.40715 | 3218 ft | 188 kts | 52° |
| 2026-04-11 05:46 | 39.81685 | -84.39358 | 3127 ft | 177 kts | 52° |
| 2026-04-11 05:47 | 39.82384 | -84.38030 | 3127 ft | 177 kts | 52° |
| 2026-04-11 05:47 | 39.83086 | -84.36699 | 3124 ft | 177 kts | 52° |
| 2026-04-11 05:47 | 39.83781 | -84.35385 | 2984 ft | 177 kts | 52° |
| 2026-04-11 05:47 | 39.84465 | -84.34092 | 2755 ft | 163 kts | 53° |
| 2026-04-11 05:48 | 39.85066 | -84.32956 | 2538 ft | 146 kts | 53° |
| 2026-04-11 05:48 | 39.85644 | -84.31870 | 2341 ft | 144 kts | 53° |
| 2026-04-11 05:48 | 39.86211 | -84.30807 | 2159 ft | 144 kts | 53° |
| 2026-04-11 05:48 | 39.86789 | -84.29720 | 1970 ft | 144 kts | 53° |
| 2026-04-11 05:49 | 39.87351 | -84.28663 | 1783 ft | 144 kts | 54° |
| 2026-04-11 05:49 | 39.87926 | -84.27581 | 1582 ft | 143 kts | 54° |
| 2026-04-11 05:49 | 39.88486 | -84.26524 | 1388 ft | 141 kts | 54° |
| 2026-04-11 05:49 | 39.89030 | -84.25500 | 1173 ft | 132 kts | 53° |
| 2026-04-11 05:50 | 39.89551 | -84.24531 | 1026 ft | 129 kts | 53° |
| 2026-04-11 05:50 | 39.90023 | -84.23650 | 997 ft | 105 kts | 54° |
| 2026-04-11 05:50 | 39.90297 | -84.23132 | 998 ft | 47 kts | 56° |
| 2026-04-11 05:50 | 39.90406 | -84.22897 | 997 ft | 27 kts | 86° |
| 2026-04-11 05:51 | 39.90309 | -84.22728 | 999 ft | 21 kts | 146° |
| 2026-04-11 05:51 | 39.90195 | -84.22626 | 1000 ft | 17 kts | 146° |
| 2026-04-11 05:51 | 39.90134 | -84.22501 | 1001 ft | 17 kts | 98° |
| 2026-04-11 05:51 | 39.90124 | -84.22350 | 1003 ft | 15 kts | 80° |
| 2026-04-11 05:52 | 39.90170 | -84.22218 | 1003 ft | 16 kts | 66° |
| 2026-04-11 05:52 | 39.90205 | -84.22115 | 1003 ft | 12 kts | 69° |
| 2026-04-11 05:52 | 39.90196 | -84.22013 | 1003 ft | 11 kts | 130° |
| 2026-04-11 05:52 | 39.90131 | -84.21980 | 1004 ft | 6 kts | 167° |
| 2026-04-11 05:53 | 39.90122 | -84.21978 | 1004 ft | 0 kts | 167° |